Time;durP1;ratioP1;P1;durP2;ratioP2;P2;SDS_P1;SDS_P2;PMS_P1;PMS_P2;Temp;Humidity;BMP_temperature;BMP_pressure;BME280_temperature;BME280_humidity;BME280_pressure;Samples;Min_cycle;Max_cycle;Signal;HPM_P1;HPM_P2
2022/01/20 00:00:45;;;;;;;9.10;6.10;;;;;;;1.35;80.06;99005.39;103485;1302;24345;-25
2022/01/20 00:03:16;;;;;;;13.10;7.80;;;;;;;1.36;79.84;98999.52;103483;1301;24222;-26
2022/01/20 00:08:27;;;;;;;11.90;6.20;;;;;;;1.50;78.98;98987.36;103529;1302;24244;-29
2022/01/20 00:23:42;;;;;;;12.70;6.40;;;;;;;1.66;77.65;98967.15;103561;1300;24270;-25
2022/01/20 00:26:12;;;;;;;13.60;6.80;;;;;;;1.70;77.64;98959.13;103488;1301;24200;-25
2022/01/20 00:28:43;;;;;;;13.40;6.60;;;;;;;1.54;78.23;98954.75;103504;1300;24174;-29
2022/01/20 00:31:49;;;;;;;14.30;7.50;;;;;;;1.25;79.40;98950.61;103569;1300;24314;-25
2022/01/20 00:34:10;;;;;;;17.70;7.40;;;;;;;1.26;79.48;98944.70;103485;1300;24186;-29
2022/01/20 00:39:03;;;;;;;17.30;8.30;;;;;;;1.04;81.12;98944.20;103502;1302;24259;-29
2022/01/20 00:41:28;;;;;;;14.50;7.60;;;;;;;1.28;79.87;98945.45;103516;1300;24218;-28
2022/01/20 00:43:54;;;;;;;20.00;7.20;;;;;;;1.30;79.76;98939.21;103511;1301;24388;-25
2022/01/20 00:46:20;;;;;;;10.10;5.70;;;;;;;1.13;80.49;98940.55;103489;1300;24247;-29
2022/01/20 00:48:45;;;;;;;7.80;5.10;;;;;;;1.41;79.45;98941.49;103479;1301;24334;-26
2022/01/20 00:51:11;;;;;;;13.60;5.90;;;;;;;1.19;80.02;98939.03;103457;1302;24199;-29
2022/01/20 00:53:43;;;;;;;10.50;6.10;;;;;;;0.98;81.23;98933.30;103479;1300;24186;-25
2022/01/20 00:56:12;;;;;;;15.80;7.30;;;;;;;1.28;80.08;98929.21;103542;1301;24538;-25
2022/01/20 00:58:38;;;;;;;10.40;5.40;;;;;;;1.23;80.19;98922.14;103534;1300;24263;-29
2022/01/20 01:01:04;;;;;;;8.90;5.00;;;;;;;1.33;79.72;98918.28;103504;1302;24260;-25
2022/01/20 01:03:29;;;;;;;11.80;6.70;;;;;;;1.33;79.55;98915.77;103516;1302;24175;-29
2022/01/20 01:06:11;;;;;;;6.30;5.00;;;;;;;1.57;78.46;98910.81;103533;1299;24235;-25
2022/01/20 01:08:37;;;;;;;9.90;5.50;;;;;;;1.61;78.65;98903.44;103411;1301;22733;-29
2022/01/20 01:11:03;;;;;;;7.50;5.00;;;;;;;1.90;76.95;98891.51;103444;1300;24333;-25
2022/01/20 01:13:30;;;;;;;16.70;5.60;;;;;;;1.59;78.28;98898.98;103592;1302;24309;-29
2022/01/20 01:15:56;;;;;;;7.50;4.50;;;;;;;1.47;79.17;98902.86;103543;1302;24316;-29
2022/01/20 01:23:20;;;;;;;13.10;8.20;;;;;;;1.61;78.44;98909.95;103590;1300;24226;-30
2022/01/20 01:25:46;;;;;;;11.00;4.20;;;;;;;1.39;79.47;98905.19;103495;1300;24459;-31
2022/01/20 01:28:12;;;;;;;14.40;6.00;;;;;;;1.35;80.23;98906.80;103521;1302;22948;-28
2022/01/20 01:31:01;;;;;;;9.30;4.90;;;;;;;1.72;79.27;98904.04;103535;1301;24222;-28
2022/01/20 01:33:25;;;;;;;7.90;5.30;;;;;;;1.67;79.23;98895.06;103552;1301;24221;-25
2022/01/20 01:35:56;;;;;;;9.70;6.10;;;;;;;1.59;79.53;98908.13;103477;1300;22518;-29
2022/01/20 01:38:35;;;;;;;6.80;4.80;;;;;;;1.47;80.71;98905.58;103536;1300;24180;-29
2022/01/20 01:41:03;;;;;;;15.10;5.60;;;;;;;1.54;80.54;98908.27;103622;1302;22884;-29
2022/01/20 01:43:31;;;;;;;13.80;6.20;;;;;;;1.41;81.65;98895.68;103548;1300;22522;-29
2022/01/20 01:45:57;;;;;;;6.30;4.70;;;;;;;1.80;80.75;98890.92;103417;1300;24252;-25
2022/01/20 01:48:23;;;;;;;5.60;4.00;;;;;;;1.75;81.25;98886.45;103527;1302;22599;-31
2022/01/20 01:50:49;;;;;;;7.90;4.60;;;;;;;1.43;82.68;98893.50;103574;1302;22600;-29
2022/01/20 01:53:16;;;;;;;8.30;4.70;;;;;;;1.53;82.32;98889.84;103488;1301;24260;-25
2022/01/20 01:55:42;;;;;;;11.40;4.50;;;;;;;1.59;82.39;98880.86;103578;1300;24288;-29
2022/01/20 01:58:08;;;;;;;7.70;4.60;;;;;;;1.37;82.89;98883.86;103575;1300;24252;-29
2022/01/20 02:00:35;;;;;;;9.80;5.00;;;;;;;1.41;83.53;98871.99;103610;1300;24199;-29
2022/01/20 02:03:00;;;;;;;12.50;5.90;;;;;;;1.54;82.67;98870.66;103537;1300;24300;-28
2022/01/20 02:05:27;;;;;;;6.30;4.20;;;;;;;1.09;84.71;98874.99;103494;1300;24222;-26
2022/01/20 02:17:55;;;;;;;6.00;4.20;;;;;;;1.05;86.73;98867.11;103531;1300;24144;-25
2022/01/20 02:20:21;;;;;;;7.90;5.80;;;;;;;1.21;86.72;98853.33;103545;1301;25006;-24
2022/01/20 02:22:46;;;;;;;6.70;4.50;;;;;;;0.89;88.61;98855.52;103593;1300;24334;-25
2022/01/20 02:25:18;;;;;;;7.00;5.00;;;;;;;0.74;90.68;98846.95;103546;1300;24345;-25
2022/01/20 02:27:45;;;;;;;6.40;4.60;;;;;;;0.81;90.62;98853.35;103516;1301;22520;-25
2022/01/20 02:30:11;;;;;;;7.20;4.50;;;;;;;0.55;92.20;98850.18;103518;1300;24174;-26
2022/01/20 02:32:37;;;;;;;8.00;4.40;;;;;;;0.21;94.69;98848.52;103540;1300;23525;-30
2022/01/20 02:35:07;;;;;;;8.60;5.40;;;;;;;0.31;95.09;98845.48;103466;1300;24455;-28
2022/01/20 02:37:32;;;;;;;6.90;4.70;;;;;;;0.20;95.41;98847.14;103557;1300;24145;-24
2022/01/20 02:40:27;;;;;;;6.60;4.80;;;;;;;0.26;96.18;98840.29;103516;1301;22755;-32
2022/01/20 02:45:13;;;;;;;8.10;5.70;;;;;;;0.15;96.62;98838.00;103568;1300;24230;-24
2022/01/20 02:47:39;;;;;;;7.60;4.10;;;;;;;0.20;96.83;98836.41;103544;1300;24340;-30
2022/01/20 02:50:05;;;;;;;7.50;4.30;;;;;;;0.05;97.89;98829.77;103481;1300;24274;-30
2022/01/20 02:52:31;;;;;;;5.50;4.60;;;;;;;0.38;96.81;98827.37;103526;1300;24307;-24
2022/01/20 02:54:57;;;;;;;9.20;4.90;;;;;;;0.26;97.11;98813.66;103501;1302;24192;-30
2022/01/20 02:57:23;;;;;;;5.40;4.30;;;;;;;0.16;97.12;98813.91;103440;1300;24225;-30
2022/01/20 02:59:49;;;;;;;7.90;5.20;;;;;;;-0.08;98.76;98809.30;103554;1300;24287;-27
2022/01/20 03:02:14;;;;;;;5.70;3.70;;;;;;;-0.05;99.84;98805.11;103476;1300;24307;-24
2022/01/20 03:04:40;;;;;;;6.20;4.20;;;;;;;0.21;98.56;98795.86;103533;1300;24325;-24
2022/01/20 03:07:06;;;;;;;4.10;3.10;;;;;;;0.26;98.01;98795.38;103491;1300;24240;-27
2022/01/20 03:09:32;;;;;;;7.30;4.30;;;;;;;0.39;97.23;98780.91;103535;1300;24324;-30
2022/01/20 03:11:59;;;;;;;10.10;4.10;;;;;;;0.12;98.12;98787.02;103495;1300;24341;-24
2022/01/20 03:14:25;;;;;;;8.70;4.40;;;;;;;0.01;99.44;98786.82;103504;1302;24239;-24
2022/01/20 03:16:51;;;;;;;5.40;3.40;;;;;;;0.34;98.59;98778.63;103501;1302;24280;-30
2022/01/20 03:19:16;;;;;;;4.10;3.40;;;;;;;0.41;97.85;98784.05;103500;1300;24433;-25
2022/01/20 03:21:43;;;;;;;4.70;3.60;;;;;;;0.35;97.68;98783.77;103540;1300;24190;-30
2022/01/20 03:24:09;;;;;;;4.10;3.30;;;;;;;0.45;98.00;98777.06;103490;1302;24357;-25
2022/01/20 03:26:35;;;;;;;8.10;5.20;;;;;;;0.44;97.82;98777.83;103575;1300;24378;-30
2022/01/20 03:29:03;;;;;;;4.80;3.30;;;;;;;0.61;97.19;98762.98;103588;1300;22524;-25
2022/01/20 03:31:30;;;;;;;5.30;3.80;;;;;;;0.57;96.28;98769.02;103512;1300;24218;-25
2022/01/20 03:33:57;;;;;;;5.10;3.60;;;;;;;0.56;97.68;98761.11;103566;1300;24145;-30
2022/01/20 03:36:23;;;;;;;30.50;3.50;;;;;;;0.69;96.81;98750.73;103459;1302;24301;-25
2022/01/20 03:38:49;;;;;;;6.80;3.50;;;;;;;0.62;96.71;98760.77;103564;1300;22721;-24
2022/01/20 03:41:14;;;;;;;5.10;3.00;;;;;;;0.27;97.87;98768.35;103600;1302;22924;-25
2022/01/20 03:43:40;;;;;;;9.50;4.40;;;;;;;0.31;99.33;98763.36;103583;1301;24237;-24
2022/01/20 03:46:12;;;;;;;5.40;2.70;;;;;;;0.34;98.39;98768.05;103491;1301;24254;-24
2022/01/20 03:48:49;;;;;;;5.00;3.10;;;;;;;0.41;98.12;98759.59;103591;1300;24199;-24
2022/01/20 03:51:20;;;;;;;4.60;2.90;;;;;;;0.28;98.76;98755.22;103474;1300;24303;-24
2022/01/20 03:53:47;;;;;;;5.10;4.10;;;;;;;0.02;99.50;98758.16;103475;1302;25343;-24
2022/01/20 03:56:13;;;;;;;5.30;3.30;;;;;;;-0.01;99.91;98761.17;103576;1300;24179;-26
2022/01/20 03:58:39;;;;;;;7.80;3.60;;;;;;;-0.02;100.00;98760.38;103542;1300;24259;-24
2022/01/20 04:01:04;;;;;;;6.70;3.40;;;;;;;-0.10;100.00;98758.48;103536;1300;24326;-24
2022/01/20 04:03:31;;;;;;;6.10;3.20;;;;;;;-0.13;100.00;98762.27;103491;1300;24186;-25
2022/01/20 04:05:56;;;;;;;3.80;2.80;;;;;;;-0.13;100.00;98764.36;103525;1301;22853;-29
2022/01/20 04:08:25;;;;;;;6.00;3.60;;;;;;;-0.04;100.00;98766.23;103525;1301;24144;-27
2022/01/20 04:10:50;;;;;;;6.50;4.10;;;;;;;-0.09;100.00;98763.81;103117;1300;643872;-24
2022/01/20 04:13:18;;;;;;;9.40;2.70;;;;;;;0.11;100.00;98764.41;103566;1302;24372;-27
2022/01/20 04:15:44;;;;;;;5.80;3.30;;;;;;;-0.01;100.00;98764.29;103465;1300;24262;-30
2022/01/20 04:18:12;;;;;;;4.40;4.00;;;;;;;0.21;100.00;98767.67;103646;1302;24289;-25
2022/01/20 04:20:37;;;;;;;3.80;2.50;;;;;;;0.36;99.99;98768.31;103537;1300;24307;-30
2022/01/20 04:23:03;;;;;;;4.00;2.20;;;;;;;0.41;99.83;98773.20;103535;1300;24275;-25
2022/01/20 04:25:29;;;;;;;2.50;2.40;;;;;;;0.55;99.62;98780.84;103512;1300;24301;-30
2022/01/20 04:27:55;;;;;;;3.70;1.90;;;;;;;0.29;99.87;98776.92;103570;1301;24335;-29
2022/01/20 04:30:20;;;;;;;3.20;2.60;;;;;;;0.17;100.00;98774.55;103513;1300;24236;-29
2022/01/20 04:32:46;;;;;;;3.10;2.70;;;;;;;0.34;100.00;98776.13;103607;1300;24399;-30
2022/01/20 04:35:12;;;;;;;3.00;2.10;;;;;;;0.19;100.00;98774.41;103541;1300;24274;-30
2022/01/20 04:37:38;;;;;;;3.70;1.80;;;;;;;0.16;100.00;98772.70;103578;1302;24176;-24
2022/01/20 04:40:05;;;;;;;3.80;2.40;;;;;;;0.19;100.00;98769.49;103554;1300;24346;-30
2022/01/20 04:42:34;;;;;;;2.30;1.20;;;;;;;0.23;100.00;98774.20;103612;1302;24230;-27
2022/01/20 04:45:05;;;;;;;3.80;2.80;;;;;;;0.26;100.00;98779.19;103525;1300;22845;-24
2022/01/20 04:47:43;;;;;;;2.90;2.30;;;;;;;0.67;99.96;98780.48;103634;1300;24339;-32
2022/01/20 04:57:37;;;;;;;5.60;3.70;;;;;;;1.39;95.58;98787.20;103621;1300;22531;-24
2022/01/20 05:00:03;;;;;;;5.50;3.00;;;;;;;1.06;95.51;98785.90;103507;1300;24192;-30
2022/01/20 05:02:29;;;;;;;6.80;3.10;;;;;;;0.89;97.07;98773.58;103473;1302;24258;-29
2022/01/20 05:04:55;;;;;;;3.50;2.90;;;;;;;0.88;97.05;98779.74;103534;1300;24202;-25
2022/01/20 05:07:25;;;;;;;3.00;1.80;;;;;;;1.14;96.05;98773.05;103549;1300;24224;-24
2022/01/20 05:09:52;;;;;;;3.30;2.70;;;;;;;0.92;96.24;98774.76;103548;1300;22530;-25
2022/01/20 05:12:24;;;;;;;4.70;4.20;;;;;;;1.14;95.79;98768.85;103466;1300;24316;-25
2022/01/20 05:14:49;;;;;;;11.70;1.90;;;;;;;0.90;96.43;98782.72;103570;1300;24222;-30
2022/01/20 05:17:15;;;;;;;6.50;3.00;;;;;;;0.72;97.62;98773.57;103535;1300;24232;-30
2022/01/20 05:19:40;;;;;;;2.20;1.40;;;;;;;0.66;98.00;98782.04;103569;1300;24253;-30
2022/01/20 05:22:06;;;;;;;3.60;3.00;;;;;;;0.39;99.39;98790.60;103556;1300;24331;-25
2022/01/20 05:24:32;;;;;;;6.60;3.80;;;;;;;0.39;100.00;98787.44;103490;1300;24396;-25
2022/01/20 05:26:58;;;;;;;1.80;1.30;;;;;;;0.23;100.00;98780.73;103492;1300;24224;-25
2022/01/20 05:29:24;;;;;;;3.60;1.50;;;;;;;0.28;100.00;98780.73;103555;1300;24444;-30
2022/01/20 05:31:50;;;;;;;3.70;1.80;;;;;;;0.28;100.00;98770.04;103528;1300;24366;-29
2022/01/20 05:34:16;;;;;;;0.60;0.40;;;;;;;0.22;100.00;98772.50;103515;1300;24221;-28
2022/01/20 05:36:42;;;;;;;4.60;1.60;;;;;;;0.25;100.00;98775.02;103547;1302;24322;-25
2022/01/20 05:39:08;;;;;;;3.60;1.70;;;;;;;0.27;100.00;98778.21;103541;1301;24243;-30
2022/01/20 05:41:34;;;;;;;8.30;1.40;;;;;;;0.35;100.00;98774.29;103511;1300;24213;-25
2022/01/20 05:44:00;;;;;;;2.10;1.10;;;;;;;0.70;100.00;98763.64;103540;1300;22899;-26
2022/01/20 05:46:34;;;;;;;2.00;1.20;;;;;;;0.88;99.79;98777.61;103457;1300;24243;-30
2022/01/20 05:49:08;;;;;;;3.90;1.50;;;;;;;0.86;99.16;98786.07;103509;1300;24220;-25
2022/01/20 05:51:35;;;;;;;16.40;1.30;;;;;;;1.12;97.73;98775.61;103532;1300;24341;-31
2022/01/20 05:54:02;;;;;;;3.40;1.80;;;;;;;1.10;97.50;98778.30;103450;1300;24282;-25
2022/01/20 05:56:27;;;;;;;5.30;2.30;;;;;;;1.35;95.49;98772.27;103519;1300;22762;-26
2022/01/20 05:58:53;;;;;;;3.30;1.30;;;;;;;1.39;94.76;98764.14;103493;1302;24401;-26
2022/01/20 06:01:18;;;;;;;6.40;0.60;;;;;;;1.10;95.86;98769.98;103525;1300;24245;-31
2022/01/20 06:03:44;;;;;;;4.50;1.50;;;;;;;1.16;96.04;98766.67;103549;1299;24246;-26
2022/01/20 06:06:11;;;;;;;2.90;0.80;;;;;;;1.14;95.16;98768.15;103511;1300;24204;-30
2022/01/20 06:08:37;;;;;;;5.20;1.20;;;;;;;1.26;95.06;98767.47;103598;1300;24302;-31
2022/01/20 06:11:03;;;;;;;2.20;1.30;;;;;;;1.30;94.66;98767.99;103638;1300;24336;-30
2022/01/20 06:13:29;;;;;;;6.80;0.80;;;;;;;1.30;94.29;98766.57;103550;1299;24234;-30
2022/01/20 06:15:55;;;;;;;8.40;0.70;;;;;;;1.16;94.66;98773.56;103523;1300;24345;-24
2022/01/20 06:18:21;;;;;;;4.10;0.80;;;;;;;0.96;96.20;98778.63;103555;1300;24222;-25
2022/01/20 06:20:47;;;;;;;2.90;0.60;;;;;;;0.83;96.87;98784.41;103545;1300;24332;-25
2022/01/20 06:23:13;;;;;;;5.10;1.10;;;;;;;0.86;97.52;98775.83;103514;1299;22514;-24
2022/01/20 06:25:39;;;;;;;15.00;1.60;;;;;;;0.77;97.25;98779.37;103538;1300;24275;-29
2022/01/20 06:28:05;;;;;;;5.90;1.50;;;;;;;0.80;97.40;98778.71;103579;1301;24330;-30
2022/01/20 06:30:32;;;;;;;6.20;1.00;;;;;;;1.00;96.25;98777.46;103574;1300;24202;-25
2022/01/20 06:32:58;;;;;;;1.40;0.60;;;;;;;1.53;93.41;98767.21;103649;1302;24254;-24
2022/01/20 06:35:24;;;;;;;7.60;2.40;;;;;;;1.55;92.03;98763.15;103430;1301;24332;-27
2022/01/20 06:37:49;;;;;;;2.50;0.80;;;;;;;1.76;90.18;98759.16;103506;1300;24329;-30
2022/01/20 06:40:15;;;;;;;11.10;1.40;;;;;;;1.68;88.91;98756.04;103521;1300;24231;-25
2022/01/20 06:42:41;;;;;;;5.60;1.70;;;;;;;1.52;88.69;98742.46;103483;1302;24227;-30
2022/01/20 06:45:09;;;;;;;13.30;1.80;;;;;;;1.55;89.02;98744.50;103538;1300;24283;-28
2022/01/20 06:47:35;;;;;;;2.30;0.80;;;;;;;1.42;89.49;98746.34;103559;1300;24265;-30
2022/01/20 06:50:01;;;;;;;6.80;1.80;;;;;;;1.46;89.16;98750.48;103574;1302;24426;-25
2022/01/20 06:52:28;;;;;;;16.70;1.70;;;;;;;1.49;88.73;98751.21;103579;1300;24337;-30
2022/01/20 06:54:54;;;;;;;12.00;2.70;;;;;;;1.42;88.99;98760.79;103463;1300;24230;-24
2022/01/20 06:57:20;;;;;;;7.50;2.30;;;;;;;1.53;87.92;98751.23;103575;1300;24348;-24
2022/01/20 06:59:45;;;;;;;5.00;1.50;;;;;;;1.58;87.05;98759.30;103551;1300;24218;-24
2022/01/20 07:02:11;;;;;;;13.00;2.30;;;;;;;1.27;88.16;98762.81;103637;1300;22701;-25
2022/01/20 07:04:38;;;;;;;1.90;0.80;;;;;;;1.46;87.11;98758.46;103486;1300;22776;-30
2022/01/20 07:07:05;;;;;;;4.90;1.20;;;;;;;1.26;88.10;98766.80;103644;1300;24263;-26
2022/01/20 07:09:32;;;;;;;10.60;1.60;;;;;;;1.27;87.69;98755.40;103627;1300;24355;-25
2022/01/20 07:11:59;;;;;;;9.10;2.30;;;;;;;1.62;85.26;98750.10;103516;1302;24218;-30
2022/01/20 07:14:25;;;;;;;9.40;1.50;;;;;;;1.55;84.10;98744.27;103517;1300;24305;-30
2022/01/20 07:16:50;;;;;;;10.90;1.60;;;;;;;1.73;82.86;98747.73;103561;1300;24217;-29
2022/01/20 07:19:16;;;;;;;6.00;1.30;;;;;;;1.62;83.28;98747.78;103593;1300;24346;-31
2022/01/20 07:21:43;;;;;;;4.70;0.90;;;;;;;1.32;84.62;98771.88;103534;1299;22514;-26
2022/01/20 07:24:09;;;;;;;7.70;1.80;;;;;;;1.04;86.62;98772.63;103554;1300;24199;-26
2022/01/20 07:26:34;;;;;;;4.60;0.90;;;;;;;1.14;85.66;98757.77;103515;1302;24330;-26
2022/01/20 07:29:00;;;;;;;7.30;1.50;;;;;;;1.20;85.25;98748.99;103479;1300;24214;-23
2022/01/20 07:31:26;;;;;;;3.40;1.80;;;;;;;1.23;85.02;98758.98;103452;1302;24298;-25
2022/01/20 07:33:52;;;;;;;1.70;0.50;;;;;;;1.45;84.02;98755.88;103556;1300;24189;-25
2022/01/20 07:36:18;;;;;;;4.20;0.80;;;;;;;1.71;82.48;98758.53;103579;1302;24253;-25
2022/01/20 07:38:44;;;;;;;7.40;1.00;;;;;;;1.21;84.54;98762.02;103577;1300;24345;-25
2022/01/20 07:41:10;;;;;;;13.30;2.20;;;;;;;1.47;84.22;98758.49;103437;1302;24329;-25
2022/01/20 07:43:35;;;;;;;4.90;1.20;;;;;;;1.34;83.94;98757.01;103525;1300;24273;-28
2022/01/20 07:46:01;;;;;;;29.00;2.20;;;;;;;1.32;83.71;98759.86;103481;1298;24331;-24
2022/01/20 07:48:27;;;;;;;6.30;2.20;;;;;;;1.25;83.25;98754.33;103492;1302;24226;-29
2022/01/20 07:50:53;;;;;;;4.40;0.70;;;;;;;1.46;82.59;98755.23;103490;1300;24216;-26
2022/01/20 07:53:19;;;;;;;5.90;2.00;;;;;;;1.14;84.50;98756.84;103551;1300;24439;-24
2022/01/20 07:55:45;;;;;;;2.00;0.90;;;;;;;1.33;84.62;98756.73;103506;1302;24152;-29
2022/01/20 07:58:10;;;;;;;1.90;0.30;;;;;;;1.56;83.19;98758.70;103529;1300;24465;-27
2022/01/20 08:00:36;;;;;;;6.50;2.10;;;;;;;1.33;83.23;98761.84;103452;1300;24330;-23
2022/01/20 08:03:02;;;;;;;7.80;0.90;;;;;;;1.36;83.32;98755.38;103587;1300;24236;-25
2022/01/20 08:05:28;;;;;;;4.50;1.80;;;;;;;0.98;85.57;98754.23;103571;1300;24191;-32
2022/01/20 08:07:53;;;;;;;3.80;1.40;;;;;;;1.03;84.39;98746.05;103491;1300;24238;-31
2022/01/20 08:10:19;;;;;;;12.40;2.40;;;;;;;1.23;83.49;98733.91;103522;1300;24461;-26
2022/01/20 08:12:45;;;;;;;1.50;0.40;;;;;;;1.21;83.21;98734.16;103562;1300;24374;-26
2022/01/20 08:15:12;;;;;;;4.00;0.50;;;;;;;1.35;82.64;98725.89;103413;1301;24322;-27
2022/01/20 08:17:39;;;;;;;15.30;4.20;;;;;;;1.10;83.00;98714.63;103553;1300;24298;-25
2022/01/20 08:20:06;;;;;;;10.70;2.60;;;;;;;1.16;82.59;98715.05;103562;1300;24146;-25
2022/01/20 08:22:34;;;;;;;10.60;0.60;;;;;;;1.51;80.64;98709.80;103558;1300;24216;-30
2022/01/20 08:25:02;;;;;;;4.90;1.30;;;;;;;1.46;80.48;98701.67;103677;1300;24218;-24
2022/01/20 08:27:28;;;;;;;7.50;0.90;;;;;;;1.46;79.74;98699.50;103581;1302;24173;-30
2022/01/20 08:29:54;;;;;;;10.20;1.60;;;;;;;1.61;78.90;98701.53;103590;1300;24305;-30
2022/01/20 08:32:19;;;;;;;5.20;1.00;;;;;;;1.54;78.43;98693.77;103541;1300;24288;-27
2022/01/20 08:34:45;;;;;;;2.90;0.50;;;;;;;1.84;76.86;98692.84;103526;1300;24217;-25
2022/01/20 08:37:11;;;;;;;8.80;1.60;;;;;;;1.72;75.96;98692.39;103684;1300;24432;-25
2022/01/20 08:42:04;;;;;;;5.50;1.30;;;;;;;1.39;77.01;98671.47;103617;1300;24350;-32
2022/01/20 08:44:29;;;;;;;2.30;0.50;;;;;;;1.53;76.98;98655.25;103646;1300;24228;-30
2022/01/20 08:46:57;;;;;;;1.70;0.70;;;;;;;1.27;76.48;98650.95;103636;1299;24292;-29
2022/01/20 08:49:23;;;;;;;13.00;0.90;;;;;;;1.40;76.70;98647.21;103763;1300;24234;-24
2022/01/20 08:51:49;;;;;;;7.20;1.40;;;;;;;1.77;75.31;98641.52;103570;1300;24224;-25
2022/01/20 08:54:15;;;;;;;6.40;1.60;;;;;;;1.57;75.53;98641.40;103665;1300;24296;-31
2022/01/20 08:56:41;;;;;;;19.40;1.10;;;;;;;1.55;74.51;98626.98;103511;1300;24321;-30
2022/01/20 08:59:07;;;;;;;3.90;0.50;;;;;;;1.55;75.27;98625.27;103538;1300;24185;-26
2022/01/20 09:01:34;;;;;;;6.50;1.30;;;;;;;1.70;74.05;98624.70;103529;1300;24373;-30
2022/01/20 09:03:59;;;;;;;5.40;0.60;;;;;;;1.76;73.63;98626.11;103556;1300;24347;-24
2022/01/20 09:06:25;;;;;;;2.30;0.50;;;;;;;1.79;73.45;98634.05;103600;1300;24282;-29
2022/01/20 09:08:51;;;;;;;25.10;2.70;;;;;;;1.93;73.45;98649.64;103628;1300;24224;-24
2022/01/20 09:11:19;;;;;;;1.30;0.60;;;;;;;2.15;75.74;98659.63;103617;1300;24225;-31
2022/01/20 09:16:15;;;;;;;0.60;0.10;;;;;;;-0.47;90.01;98759.48;103603;1300;24298;-25
2022/01/20 09:18:41;;;;;;;2.60;0.20;;;;;;;-1.22;93.33;98771.02;103558;1300;22525;-25
2022/01/20 09:21:07;;;;;;;1.60;0.40;;;;;;;-1.52;96.15;98771.10;103564;1300;24220;-25
2022/01/20 09:23:33;;;;;;;6.00;0.40;;;;;;;-1.45;97.47;98773.98;103536;1300;24204;-31
2022/01/20 09:25:59;;;;;;;1.80;0.50;;;;;;;-1.26;97.37;98765.08;103618;1300;24326;-29
2022/01/20 09:28:26;;;;;;;1.20;0.40;;;;;;;-1.05;95.17;98767.91;103591;1300;24280;-29
2022/01/20 09:30:57;;;;;;;3.70;1.00;;;;;;;-0.97;91.68;98774.61;103576;1300;24329;-29
2022/01/20 09:33:27;;;;;;;2.90;0.50;;;;;;;-0.78;89.43;98782.94;103497;1300;24383;-26
2022/01/20 09:35:53;;;;;;;5.50;0.80;;;;;;;-0.87;88.85;98784.62;103584;1300;24338;-27
2022/01/20 09:38:19;;;;;;;5.00;0.70;;;;;;;-0.75;87.85;98784.16;103614;1299;24354;-29
2022/01/20 09:40:44;;;;;;;4.50;1.10;;;;;;;-0.56;85.91;98777.52;103616;1300;24231;-30
2022/01/20 09:43:12;;;;;;;2.10;0.60;;;;;;;-0.82;85.57;98775.82;103531;1300;22717;-26
2022/01/20 09:45:38;;;;;;;11.20;1.00;;;;;;;-0.31;82.03;98771.91;103502;1300;24122;-25
2022/01/20 09:48:04;;;;;;;7.70;1.30;;;;;;;-0.30;80.53;98755.44;103542;1300;24215;-25
2022/01/20 09:50:30;;;;;;;6.10;1.20;;;;;;;-0.38;80.60;98759.85;103571;1300;24298;-31
2022/01/20 09:52:59;;;;;;;9.80;2.40;;;;;;;-0.45;80.65;98757.89;103612;1300;24294;-29
2022/01/20 09:55:25;;;;;;;3.90;1.40;;;;;;;-0.46;81.11;98756.87;103627;1300;24202;-29
2022/01/20 09:57:50;;;;;;;1.00;0.40;;;;;;;-0.34;81.55;98767.02;103661;1300;24189;-24
2022/01/20 10:00:16;;;;;;;3.60;1.30;;;;;;;-0.33;82.63;98760.25;103626;1300;24351;-24
2022/01/20 10:02:49;;;;;;;29.90;10.20;;;;;;;0.02;81.99;98766.88;103637;1300;24301;-29
2022/01/20 10:05:24;;;;;;;52.30;9.70;;;;;;;-0.28;83.63;98772.59;103584;1300;23971;-26
2022/01/20 10:07:50;;;;;;;86.20;21.50;;;;;;;-0.27;84.08;98768.68;103649;1300;24380;-25
2022/01/20 10:10:16;;;;;;;31.20;11.50;;;;;;;-0.22;84.25;98762.05;103704;1300;24332;-29
2022/01/20 10:12:41;;;;;;;47.10;15.30;;;;;;;0.15;82.55;98765.93;103550;1300;24668;-29
2022/01/20 10:15:10;;;;;;;15.30;4.70;;;;;;;0.04;82.14;98764.41;103612;1300;24174;-25
2022/01/20 10:17:36;;;;;;;58.80;22.30;;;;;;;0.31;80.49;98766.70;103674;1300;24218;-29
2022/01/20 10:20:05;;;;;;;13.90;4.80;;;;;;;0.21;80.64;98762.45;103623;1299;24185;-29
2022/01/20 10:22:31;;;;;;;11.70;4.90;;;;;;;0.15;80.21;98757.66;103612;1300;24246;-29
2022/01/20 10:25:01;;;;;;;14.90;3.30;;;;;;;0.49;79.37;98760.96;103678;1300;24263;-29
2022/01/20 10:27:28;;;;;;;14.10;6.10;;;;;;;0.44;78.89;98759.46;103547;1300;24203;-30
2022/01/20 10:29:57;;;;;;;7.60;0.90;;;;;;;0.22;81.11;98757.19;103623;1300;24221;-30
2022/01/20 10:32:24;;;;;;;2.90;0.50;;;;;;;0.52;79.74;98766.17;103641;1300;24171;-25
2022/01/20 10:35:00;;;;;;;5.20;1.40;;;;;;;-0.17;82.36;98813.46;103634;1300;24223;-30
2022/01/20 10:37:26;;;;;;;4.70;0.40;;;;;;;-0.88;87.02;98833.16;103683;1300;24173;-25
2022/01/20 10:39:52;;;;;;;0.60;0.10;;;;;;;-1.53;87.23;98833.68;103579;1300;24220;-25
2022/01/20 10:42:20;;;;;;;1.60;0.30;;;;;;;-1.81;86.34;98828.33;103594;1300;22786;-31
2022/01/20 10:44:49;;;;;;;1.80;0.60;;;;;;;-2.05;85.77;98829.73;103608;1300;24172;-29
2022/01/20 10:47:16;;;;;;;0.20;0.10;;;;;;;-1.80;84.94;98829.85;103607;1300;24170;-29
2022/01/20 10:49:42;;;;;;;0.70;0.30;;;;;;;-1.64;83.36;98817.08;103535;1300;24262;-26
2022/01/20 10:52:09;;;;;;;18.80;1.20;;;;;;;-1.36;81.89;98810.57;103591;1299;24173;-31
2022/01/20 10:54:41;;;;;;;1.10;0.30;;;;;;;-1.65;82.61;98815.41;103650;1300;22523;-26
2022/01/20 10:57:08;;;;;;;3.30;0.30;;;;;;;-1.42;81.97;98799.31;103689;1300;23883;-31
2022/01/20 10:59:34;;;;;;;0.70;0.30;;;;;;;-1.37;81.44;98802.76;103606;1300;24326;-29
2022/01/20 11:02:03;;;;;;;0.20;0.10;;;;;;;-0.98;79.75;98801.96;103601;1300;24166;-30
2022/01/20 11:04:29;;;;;;;1.60;0.60;;;;;;;-0.82;76.80;98800.66;103759;1300;22512;-26
2022/01/20 11:06:57;;;;;;;4.00;0.40;;;;;;;-0.75;75.75;98802.49;103626;1300;24269;-26
2022/01/20 11:09:24;;;;;;;1.60;0.70;;;;;;;-0.42;74.66;98792.63;103554;1300;24213;-26
2022/01/20 11:11:51;;;;;;;1.20;0.40;;;;;;;-0.15;72.52;98792.23;103687;1300;24305;-26
2022/01/20 11:14:17;;;;;;;3.30;0.90;;;;;;;-0.66;73.28;98802.58;103594;1300;24201;-24
2022/01/20 11:16:43;;;;;;;0.50;0.20;;;;;;;-0.52;73.08;98797.16;103577;1300;22523;-31
2022/01/20 11:19:15;;;;;;;3.70;0.60;;;;;;;-0.10;71.96;98790.67;103472;1302;24225;-29
2022/01/20 11:21:42;;;;;;;3.30;0.90;;;;;;;0.32;71.62;98797.41;103589;1300;23932;-28
2022/01/20 11:24:16;;;;;;;4.30;0.70;;;;;;;0.66;69.24;98791.34;103506;1300;24180;-29
2022/01/20 11:26:49;;;;;;;2.40;0.40;;;;;;;0.44;69.52;98809.30;103568;1300;24325;-31
2022/01/20 11:29:14;;;;;;;2.50;0.50;;;;;;;0.16;70.31;98800.70;103616;1300;25353;-29
2022/01/20 11:31:40;;;;;;;5.80;1.70;;;;;;;0.20;70.54;98803.16;103559;1300;24327;-29
2022/01/20 11:34:13;;;;;;;4.20;0.10;;;;;;;0.33;69.08;98793.80;103727;1300;24443;-25
2022/01/20 11:36:38;;;;;;;1.70;0.40;;;;;;;-0.24;70.77;98794.67;103699;1300;24103;-29
2022/01/20 11:39:05;;;;;;;4.40;0.70;;;;;;;0.28;68.78;98793.64;103449;1300;24249;-30
2022/01/20 11:41:36;;;;;;;2.10;0.60;;;;;;;0.61;67.24;98790.97;103618;1300;24244;-28
2022/01/20 11:44:07;;;;;;;12.60;4.40;;;;;;;0.21;69.31;98799.88;103619;1300;22781;-25
2022/01/20 11:46:38;;;;;;;22.90;7.10;;;;;;;0.77;68.94;98802.63;103556;1300;22518;-25
2022/01/20 11:49:06;;;;;;;16.70;4.40;;;;;;;0.56;68.74;98799.58;103652;1300;25134;-25
2022/01/20 11:51:39;;;;;;;64.20;16.10;;;;;;;0.87;65.54;98797.39;103617;1300;24494;-27
2022/01/20 11:54:05;;;;;;;11.80;1.70;;;;;;;0.80;66.83;98789.96;103682;1300;24232;-29
2022/01/20 11:56:35;;;;;;;60.70;22.10;;;;;;;0.75;64.36;98793.84;103551;1300;24239;-29
2022/01/20 11:59:02;;;;;;;17.30;5.70;;;;;;;0.90;63.54;98785.48;103567;1299;24253;-25
2022/01/20 12:01:30;;;;;;;14.60;4.90;;;;;;;0.84;64.75;98799.63;103573;1299;24230;-29
2022/01/20 12:03:56;;;;;;;18.60;8.70;;;;;;;0.74;64.51;98803.48;103500;1300;24159;-25
2022/01/20 12:06:24;;;;;;;2.50;0.90;;;;;;;1.12;62.85;98787.54;103614;1300;23926;-30
2022/01/20 12:08:54;;;;;;;2.50;0.60;;;;;;;1.15;60.67;98787.99;103533;1302;24182;-30
2022/01/20 12:11:20;;;;;;;4.20;1.40;;;;;;;0.49;61.87;98802.35;103396;1300;312207;-25
2022/01/20 12:13:46;;;;;;;14.30;0.90;;;;;;;0.44;60.33;98801.89;103549;1300;24193;-25
2022/01/20 12:16:18;;;;;;;2.10;0.60;;;;;;;0.32;60.97;98808.21;103520;1300;24183;-29